Time;durP1;ratioP1;P1;durP2;ratioP2;P2;SDS_P1;SDS_P2;PMS_P1;PMS_P2;Temp;Humidity;BMP_temperature;BMP_pressure;BME280_temperature;BME280_humidity;BME280_pressure;Samples;Min_cycle;Max_cycle;Signal;HPM_P1;HPM_P2
2021/11/19 00:01:02;;;;;;;42.70;9.60;;;29.80;76.50;;;;;;5063706;28;20016;-46
2021/11/19 00:03:29;;;;;;;47.70;9.77;;;29.80;76.40;;;;;;5063640;28;20025;-46
2021/11/19 00:05:55;;;;;;;48.47;9.60;;;29.80;76.40;;;;;;5063458;28;20049;-51
2021/11/19 00:08:27;;;;;;;43.80;8.45;;;29.80;76.60;;;;;;5063779;28;20224;-43
2021/11/19 00:10:56;;;;;;;52.15;9.35;;;29.80;76.70;;;;;;5063508;28;20031;-51
2021/11/19 00:13:24;;;;;;;40.92;7.78;;;29.80;76.50;;;;;;5063566;28;20305;-49
2021/11/19 00:15:51;;;;;;;44.15;7.72;;;29.70;76.40;;;;;;5063357;28;20029;-48
2021/11/19 00:18:18;;;;;;;27.02;6.47;;;29.70;76.40;;;;;;5063320;28;20027;-53
2021/11/19 00:20:45;;;;;;;98.68;8.75;;;29.70;76.20;;;;;;5063416;28;20111;-50
2021/11/19 00:23:12;;;;;;;46.67;6.65;;;29.70;76.30;;;;;;5063435;28;20256;-49
2021/11/19 00:25:39;;;;;;;35.40;6.13;;;29.70;76.20;;;;;;5063184;28;20025;-52
2021/11/19 00:28:07;;;;;;;31.88;5.65;;;29.70;76.10;;;;;;5063289;28;20025;-46
2021/11/19 00:30:35;;;;;;;25.92;6.10;;;29.60;76.00;;;;;;5063356;28;20048;-50
2021/11/19 00:33:02;;;;;;;18.73;5.07;;;29.60;76.10;;;;;;5066750;28;20285;-50
2021/11/19 00:35:30;;;;;;;26.55;5.30;;;29.60;76.00;;;;;;5067072;28;20233;-45
2021/11/19 00:37:58;;;;;;;24.17;5.15;;;29.60;75.90;;;;;;5067165;28;20027;-46
2021/11/19 00:40:31;;;;;;;23.73;5.10;;;29.60;75.80;;;;;;5066894;28;20032;-50
2021/11/19 00:42:57;;;;;;;20.80;4.00;;;29.60;75.80;;;;;;5065983;28;20088;-48
2021/11/19 00:45:25;;;;;;;17.15;4.68;;;29.60;75.80;;;;;;5066943;28;20033;-51
2021/11/19 00:47:54;;;;;;;15.70;4.45;;;29.60;75.70;;;;;;5066763;28;20163;-48
2021/11/19 00:50:28;;;;;;;14.98;4.70;;;29.60;75.70;;;;;;5067027;28;20336;-51
2021/11/19 00:52:55;;;;;;;18.63;4.20;;;29.60;75.70;;;;;;5066895;28;20043;-53
2021/11/19 00:55:23;;;;;;;14.98;4.35;;;29.50;75.50;;;;;;5066798;28;20087;-52
2021/11/19 00:57:50;;;;;;;20.85;4.65;;;29.50;75.40;;;;;;5066936;28;20013;-53
2021/11/19 01:00:25;;;;;;;13.25;4.15;;;29.50;75.50;;;;;;5066747;28;20067;-44
2021/11/19 01:02:51;;;;;;;16.33;4.82;;;29.50;75.50;;;;;;5066754;28;20017;-51
2021/11/19 01:05:18;;;;;;;13.38;4.10;;;29.50;75.40;;;;;;5066596;28;20060;-48
2021/11/19 01:07:45;;;;;;;13.90;4.30;;;29.50;75.90;;;;;;5066543;28;20213;-53
2021/11/19 01:10:18;;;;;;;11.57;4.03;;;29.50;75.30;;;;;;5067172;28;20035;-56
2021/11/19 01:12:46;;;;;;;16.02;4.45;;;29.40;75.20;;;;;;5066666;28;20021;-53
2021/11/19 01:15:30;;;;;;;15.27;4.65;;;29.40;75.20;;;;;;5066889;28;20092;-52
2021/11/19 01:18:09;;;;;;;25.90;4.45;;;29.40;75.20;;;;;;5066477;28;20187;-48
2021/11/19 01:20:47;;;;;;;17.10;4.68;;;29.40;75.20;;;;;;5066655;28;20213;-48
2021/11/19 01:23:16;;;;;;;11.70;4.03;;;29.40;75.10;;;;;;5066212;28;20035;-51
2021/11/19 01:25:48;;;;;;;11.40;4.22;;;29.40;75.10;;;;;;5065937;28;20025;-50
2021/11/19 01:28:15;;;;;;;16.70;3.95;;;29.40;75.10;;;;;;5066260;28;20193;-46
2021/11/19 01:31:01;;;;;;;15.82;4.22;;;29.40;75.10;;;;;;5066324;28;20035;-46
2021/11/19 01:33:29;;;;;;;13.27;3.78;;;29.40;75.10;;;;;;5066426;28;20062;-47
2021/11/19 01:35:56;;;;;;;17.90;4.18;;;29.30;75.10;;;;;;5066139;28;20021;-48
2021/11/19 01:38:23;;;;;;;27.85;4.95;;;29.30;75.20;;;;;;5066124;28;20051;-44
2021/11/19 01:40:55;;;;;;;22.83;4.90;;;29.30;75.20;;;;;;5066250;28;20025;-51
2021/11/19 01:43:22;;;;;;;19.23;4.43;;;29.30;75.20;;;;;;5065673;28;20021;-49
2021/11/19 01:45:52;;;;;;;17.13;4.10;;;29.30;75.30;;;;;;5065501;28;20136;-53
2021/11/19 01:48:23;;;;;;;13.82;3.78;;;29.30;75.40;;;;;;5066202;28;20028;-50
2021/11/19 01:51:03;;;;;;;19.77;4.15;;;29.30;75.30;;;;;;5066257;28;20063;-53
2021/11/19 01:53:40;;;;;;;18.15;4.40;;;29.30;75.50;;;;;;5066124;28;20024;-51
2021/11/19 01:56:21;;;;;;;20.15;4.43;;;29.30;75.40;;;;;;5065565;28;20021;-50
2021/11/19 01:58:53;;;;;;;13.50;3.85;;;29.30;76.00;;;;;;5066005;28;20051;-47
2021/11/19 02:01:25;;;;;;;18.20;4.13;;;29.30;75.40;;;;;;5065537;28;20035;-54
2021/11/19 02:03:58;;;;;;;11.77;3.83;;;29.20;75.50;;;;;;5065727;28;20240;-53
2021/11/19 02:06:56;;;;;;;12.18;3.72;;;29.20;75.50;;;;;;5065734;28;20036;-57
2021/11/19 02:09:52;;;;;;;22.38;3.95;;;29.20;75.50;;;;;;5065939;28;20062;-57
2021/11/19 02:12:56;;;;;;;11.48;3.95;;;29.20;75.50;;;;;;5065678;28;20079;-54
2021/11/19 02:15:47;;;;;;;12.15;3.70;;;29.20;75.50;;;;;;5065482;28;20276;-52
2021/11/19 02:18:26;;;;;;;16.35;4.00;;;29.20;75.50;;;;;;5065647;28;20084;-55
2021/11/19 02:20:59;;;;;;;15.55;3.75;;;29.20;75.50;;;;;;5065464;28;20041;-58
2021/11/19 02:23:40;;;;;;;12.57;3.38;;;29.20;75.50;;;;;;5065410;28;20098;-53
2021/11/19 02:26:16;;;;;;;11.65;3.55;;;29.20;75.50;;;;;;5065290;28;20033;-54
2021/11/19 02:28:46;;;;;;;13.05;4.40;;;29.20;75.50;;;;;;5065130;28;20328;-55
2021/11/19 02:31:18;;;;;;;13.77;3.75;;;29.10;75.50;;;;;;5065149;28;20325;-56
2021/11/19 02:33:48;;;;;;;14.73;3.80;;;29.10;75.50;;;;;;5065374;28;20194;-53
2021/11/19 02:36:33;;;;;;;7.85;4.00;;;29.10;75.50;;;;;;5064996;28;20017;-53
2021/11/19 02:39:25;;;;;;;12.02;3.42;;;29.10;75.60;;;;;;5064081;28;20033;-55
2021/11/19 02:41:59;;;;;;;8.63;3.83;;;29.10;75.50;;;;;;5065148;28;20025;-53
2021/11/19 02:44:34;;;;;;;9.07;3.67;;;29.10;75.60;;;;;;5065188;28;20301;-57
2021/11/19 02:47:05;;;;;;;16.90;3.90;;;29.10;75.50;;;;;;5064903;28;20032;-56
2021/11/19 02:49:31;;;;;;;16.23;4.03;;;29.10;75.50;;;;;;5065191;28;20021;-56
2021/11/19 02:51:58;;;;;;;15.05;4.18;;;29.10;75.60;;;;;;5064697;28;20221;-56
2021/11/19 02:54:28;;;;;;;12.05;3.58;;;29.10;75.60;;;;;;5064457;28;20257;-57
2021/11/19 02:56:55;;;;;;;15.98;3.72;;;29.10;75.60;;;;;;5064276;28;20027;-52
2021/11/19 02:59:23;;;;;;;11.88;3.47;;;29.00;75.50;;;;;;5064817;28;20234;-57
2021/11/19 03:02:07;;;;;;;10.43;3.47;;;29.10;75.50;;;;;;5064741;28;20021;-58
2021/11/19 03:04:37;;;;;;;12.88;3.63;;;29.00;75.50;;;;;;5064478;28;20249;-52
2021/11/19 03:07:04;;;;;;;12.20;3.90;;;29.00;75.60;;;;;;5064491;28;20024;-54
2021/11/19 03:09:35;;;;;;;13.45;4.30;;;29.00;75.60;;;;;;5064839;28;20028;-56
2021/11/19 03:12:03;;;;;;;14.65;5.07;;;29.00;75.70;;;;;;5064543;28;20028;-54
2021/11/19 03:14:31;;;;;;;18.27;9.57;;;29.00;75.70;;;;;;5064625;28;20033;-56
2021/11/19 03:16:58;;;;;;;28.05;12.60;;;29.00;75.80;;;;;;5064411;28;20017;-57
2021/11/19 03:19:25;;;;;;;37.08;20.00;;;29.00;75.80;;;;;;5064768;28;20029;-54
2021/11/19 03:21:52;;;;;;;49.10;26.52;;;29.00;75.90;;;;;;5064281;28;20013;-58
2021/11/19 03:24:21;;;;;;;57.28;35.47;;;29.00;75.80;;;;;;5064470;28;20033;-51
2021/11/19 03:26:52;;;;;;;64.32;36.45;;;29.00;75.90;;;;;;5063245;28;20201;-45
2021/11/19 03:29:20;;;;;;;63.65;34.53;;;29.00;76.10;;;;;;5064379;28;20040;-46
2021/11/19 03:31:48;;;;;;;56.42;28.40;;;29.00;76.20;;;;;;5064026;28;20020;-49
2021/11/19 03:34:17;;;;;;;49.00;24.48;;;29.00;76.30;;;;;;5064263;28;20103;-56
2021/11/19 03:36:46;;;;;;;40.67;18.73;;;29.00;76.30;;;;;;5064064;28;20228;-53
2021/11/19 03:39:15;;;;;;;48.08;18.80;;;28.90;76.20;;;;;;5064203;28;20029;-50
2021/11/19 03:41:44;;;;;;;30.88;15.85;;;28.90;76.00;;;;;;5064041;28;20017;-49
2021/11/19 03:44:16;;;;;;;33.20;16.95;;;28.90;76.00;;;;;;5064363;28;20059;-48
2021/11/19 03:46:48;;;;;;;32.60;16.60;;;28.90;75.90;;;;;;5063765;28;20070;-51
2021/11/19 03:49:15;;;;;;;;;;;28.90;76.30;;;;;;5064626;28;20040;-50
2021/11/19 03:51:46;;;;;;;28.05;13.57;;;28.90;76.30;;;;;;5063886;28;19940;-45
2021/11/19 03:54:15;;;;;;;21.93;11.33;;;28.90;75.80;;;;;;5063921;28;20052;-52
2021/11/19 03:56:42;;;;;;;21.42;11.32;;;28.90;75.80;;;;;;5063750;28;20255;-46
2021/11/19 03:59:10;;;;;;;15.93;8.93;;;28.90;75.80;;;;;;5063970;28;20032;-50
2021/11/19 04:01:41;;;;;;;18.58;8.63;;;28.90;75.80;;;;;;5062611;28;20048;-52
2021/11/19 04:04:09;;;;;;;18.95;8.77;;;28.90;75.70;;;;;;5063858;28;20017;-48
2021/11/19 04:06:36;;;;;;;15.82;6.90;;;28.90;75.60;;;;;;5063379;28;20012;-44
2021/11/19 04:09:04;;;;;;;23.08;7.68;;;28.90;75.50;;;;;;5063923;28;20040;-51
2021/11/19 04:11:31;;;;;;;19.20;7.18;;;28.80;75.40;;;;;;5063611;28;20024;-44
2021/11/19 04:13:58;;;;;;;17.42;6.65;;;28.80;75.40;;;;;;5063282;28;20036;-51
2021/11/19 04:16:32;;;;;;;13.20;6.15;;;28.80;75.30;;;;;;5063689;28;20013;-52
2021/11/19 04:19:01;;;;;;;17.13;5.57;;;28.80;75.30;;;;;;5064032;28;20135;-47
2021/11/19 04:21:28;;;;;;;15.27;5.55;;;28.80;75.20;;;;;;5063420;28;20021;-51
2021/11/19 04:23:55;;;;;;;12.15;5.18;;;28.80;75.00;;;;;;5063992;28;20052;-47
2021/11/19 04:26:23;;;;;;;13.48;5.20;;;28.80;74.80;;;;;;5063502;28;20044;-51
2021/11/19 04:28:50;;;;;;;14.50;4.93;;;28.80;74.60;;;;;;5063542;28;20025;-49
2021/11/19 04:31:19;;;;;;;11.57;4.88;;;28.80;74.60;;;;;;5063529;28;20023;-50
2021/11/19 04:33:47;;;;;;;10.95;4.80;;;28.80;74.40;;;;;;5063663;28;20036;-52
2021/11/19 04:36:13;;;;;;;10.63;4.20;;;28.70;74.20;;;;;;5063201;28;20021;-49
2021/11/19 04:38:40;;;;;;;9.88;4.13;;;28.70;74.00;;;;;;5063533;28;20119;-48
2021/11/19 04:41:10;;;;;;;12.20;4.03;;;28.70;73.70;;;;;;5063416;28;20320;-55
2021/11/19 04:43:37;;;;;;;8.18;3.72;;;28.70;73.60;;;;;;5063301;28;20036;-50
2021/11/19 04:46:06;;;;;;;10.02;4.15;;;28.70;73.40;;;;;;5063257;28;20028;-50
2021/11/19 04:48:34;;;;;;;8.15;3.60;;;28.70;73.40;;;;;;5062223;28;20024;-51
2021/11/19 04:51:05;;;;;;;6.55;3.13;;;28.70;73.20;;;;;;5063293;28;20238;-52
2021/11/19 04:53:32;;;;;;;5.13;2.88;;;28.70;72.90;;;;;;5063484;28;20301;-50
2021/11/19 04:56:00;;;;;;;7.05;3.03;;;28.70;72.90;;;;;;5062991;28;20263;-55
2021/11/19 04:58:27;;;;;;;8.52;3.22;;;28.70;72.70;;;;;;5063183;28;20017;-48
2021/11/19 05:01:02;;;;;;;7.28;3.00;;;28.70;72.60;;;;;;5063201;28;20309;-48
2021/11/19 05:03:29;;;;;;;6.28;2.83;;;28.70;72.40;;;;;;5063109;28;20127;-49
2021/11/19 05:05:56;;;;;;;6.80;2.92;;;28.60;72.30;;;;;;5061947;28;20268;-49
2021/11/19 05:08:23;;;;;;;5.40;2.75;;;28.70;72.30;;;;;;5063284;28;20036;-50
2021/11/19 05:10:52;;;;;;;6.22;2.58;;;28.60;72.10;;;;;;5062992;28;20021;-49
2021/11/19 05:13:19;;;;;;;5.22;2.75;;;28.60;72.10;;;;;;5063189;28;20033;-48
2021/11/19 05:15:50;;;;;;;7.07;3.15;;;28.60;72.00;;;;;;5063026;28;20028;-49
2021/11/19 05:18:17;;;;;;;4.63;2.70;;;28.60;72.00;;;;;;5063633;28;20052;-51
2021/11/19 05:20:43;;;;;;;3.72;2.13;;;28.60;71.80;;;;;;5066653;28;20040;-50
2021/11/19 05:23:10;;;;;;;4.65;3.00;;;28.60;71.80;;;;;;5066589;28;20016;-52
2021/11/19 05:25:41;;;;;;;5.00;2.50;;;28.60;72.40;;;;;;5066404;28;20213;-46
2021/11/19 05:28:09;;;;;;;5.07;2.90;;;28.60;71.80;;;;;;5066523;28;20021;-47
2021/11/19 05:30:36;;;;;;;6.95;2.90;;;28.60;71.80;;;;;;5066498;28;20021;-51
2021/11/19 05:33:03;;;;;;;9.05;2.50;;;28.50;71.70;;;;;;5066289;28;20024;-51
2021/11/19 05:35:31;;;;;;;5.00;2.67;;;28.50;71.50;;;;;;5066321;28;20092;-52
2021/11/19 05:37:58;;;;;;;5.57;2.50;;;28.60;71.70;;;;;;5065252;28;20340;-47
2021/11/19 05:40:25;;;;;;;6.80;2.75;;;28.50;71.50;;;;;;5066156;28;20021;-53
2021/11/19 05:42:52;;;;;;;6.70;2.70;;;28.60;71.60;;;;;;5066139;28;20021;-47
2021/11/19 05:45:22;;;;;;;5.38;2.75;;;28.60;71.60;;;;;;5066175;28;20304;-51
2021/11/19 05:47:49;;;;;;;4.65;2.50;;;28.60;71.70;;;;;;5065975;28;20078;-47
2021/11/19 05:50:19;;;;;;;6.57;2.35;;;28.50;71.60;;;;;;5066321;28;20309;-49
2021/11/19 05:52:46;;;;;;;6.70;2.60;;;28.50;71.60;;;;;;5066006;28;20033;-46
2021/11/19 05:55:16;;;;;;;7.63;2.67;;;28.50;71.70;;;;;;5066262;28;20044;-50
2021/11/19 05:57:43;;;;;;;6.05;2.78;;;28.50;71.80;;;;;;5065939;28;20088;-53
2021/11/19 06:00:16;;;;;;;6.90;2.80;;;28.50;71.80;;;;;;5065808;28;20024;-51
2021/11/19 06:02:43;;;;;;;7.13;3.05;;;28.50;72.00;;;;;;5065814;28;20027;-48
2021/11/19 06:05:11;;;;;;;7.78;2.97;;;28.50;72.10;;;;;;5065895;28;20369;-47
2021/11/19 06:07:38;;;;;;;7.18;2.63;;;28.50;72.10;;;;;;5065911;28;20029;-52
2021/11/19 06:10:07;;;;;;;5.00;3.15;;;28.50;72.30;;;;;;5066209;28;20029;-51
2021/11/19 06:12:41;;;;;;;5.88;2.50;;;28.50;72.40;;;;;;5065777;28;20032;-50
2021/11/19 06:15:14;;;;;;;6.22;2.63;;;28.50;72.50;;;;;;5065902;28;20028;-51
2021/11/19 06:17:44;;;;;;;5.55;2.38;;;28.50;72.40;;;;;;5065585;28;20025;-47
2021/11/19 06:20:15;;;;;;;5.43;2.63;;;28.50;72.40;;;;;;5065924;28;20021;-48
2021/11/19 06:22:49;;;;;;;7.30;2.60;;;28.50;72.60;;;;;;5065666;28;20025;-45
2021/11/19 06:25:23;;;;;;;10.32;2.53;;;28.50;72.60;;;;;;5064511;28;20301;-54
2021/11/19 06:27:53;;;;;;;6.55;2.92;;;28.50;72.50;;;;;;5065258;28;20067;-55
2021/11/19 06:30:22;;;;;;;6.95;3.05;;;28.50;72.50;;;;;;5065205;28;20029;-64
2021/11/19 06:32:49;;;;;;;3.80;2.60;;;28.50;72.40;;;;;;5065306;28;20315;-58
2021/11/19 06:35:16;;;;;;;7.13;2.88;;;28.50;72.40;;;;;;5065672;28;20033;-59
2021/11/19 06:37:43;;;;;;;7.97;2.85;;;28.50;72.90;;;;;;5065355;28;20085;-58
2021/11/19 06:40:14;;;;;;;5.25;2.80;;;28.50;72.20;;;;;;5065516;28;20083;-54
2021/11/19 06:42:41;;;;;;;4.60;2.80;;;28.40;72.20;;;;;;5065267;28;20101;-54
2021/11/19 06:45:08;;;;;;;4.70;2.53;;;28.50;72.20;;;;;;5065522;28;20205;-50
2021/11/19 06:47:34;;;;;;;5.43;2.63;;;28.40;72.10;;;;;;5064875;28;20223;-50
2021/11/19 06:50:01;;;;;;;6.28;2.25;;;28.40;72.00;;;;;;5065372;28;20017;-50
2021/11/19 06:52:28;;;;;;;6.00;2.72;;;28.40;71.90;;;;;;5065129;28;20226;-47
2021/11/19 06:54:54;;;;;;;4.10;2.55;;;28.40;71.90;;;;;;5065141;28;20297;-48
2021/11/19 06:57:21;;;;;;;5.45;2.30;;;28.40;71.70;;;;;;5064809;28;20049;-46
2021/11/19 06:59:48;;;;;;;7.25;2.40;;;28.40;71.70;;;;;;5065166;28;20020;-47
2021/11/19 07:02:15;;;;;;;4.80;2.40;;;28.40;71.70;;;;;;5064718;28;20021;-46
2021/11/19 07:04:42;;;;;;;4.72;2.28;;;28.40;71.60;;;;;;5064708;28;20041;-47
2021/11/19 07:07:09;;;;;;;4.78;2.50;;;28.40;71.40;;;;;;5064612;28;20106;-46
2021/11/19 07:09:37;;;;;;;4.10;2.30;;;28.40;71.30;;;;;;5064993;28;20086;-49
2021/11/19 07:12:07;;;;;;;5.95;2.65;;;28.40;71.30;;;;;;5064626;28;20079;-48
2021/11/19 07:14:34;;;;;;;5.53;2.33;;;28.40;71.20;;;;;;5064774;28;20032;-46
2021/11/19 07:17:04;;;;;;;5.15;2.05;;;28.40;71.10;;;;;;5064362;28;20074;-50
2021/11/19 07:19:32;;;;;;;5.18;2.10;;;28.30;71.10;;;;;;5064716;28;20017;-52
2021/11/19 07:21:58;;;;;;;5.70;2.28;;;28.30;71.10;;;;;;5064431;28;20059;-46
2021/11/19 07:24:25;;;;;;;4.18;1.98;;;28.30;70.90;;;;;;5064529;28;20021;-42
2021/11/19 07:26:52;;;;;;;4.03;2.33;;;28.30;71.00;;;;;;5064256;28;20352;-44
2021/11/19 07:29:19;;;;;;;3.38;2.15;;;28.30;70.80;;;;;;5064218;28;20033;-50
2021/11/19 07:31:45;;;;;;;5.18;2.28;;;28.30;70.60;;;;;;5064079;28;20085;-48
2021/11/19 07:34:12;;;;;;;3.83;2.05;;;28.30;70.60;;;;;;5064635;28;20072;-50
2021/11/19 07:36:39;;;;;;;5.38;2.00;;;28.30;70.50;;;;;;5064232;28;20021;-50
2021/11/19 07:39:08;;;;;;;3.22;2.10;;;28.30;70.50;;;;;;5064261;28;20071;-50
2021/11/19 07:41:35;;;;;;;2.92;1.98;;;28.20;70.50;;;;;;5062413;28;20258;-51
2021/11/19 07:44:03;;;;;;;4.38;2.20;;;28.30;70.40;;;;;;5064235;28;20088;-43
2021/11/19 07:46:30;;;;;;;4.35;2.28;;;28.30;70.40;;;;;;5063821;28;20017;-48
2021/11/19 07:48:57;;;;;;;3.17;2.22;;;28.30;70.30;;;;;;5064138;28;20032;-51
2021/11/19 07:51:27;;;;;;;3.15;1.95;;;28.30;70.20;;;;;;5063939;28;20213;-47
2021/11/19 07:53:54;;;;;;;3.03;2.28;;;28.30;70.30;;;;;;5064008;28;20329;-44
2021/11/19 07:56:29;;;;;;;6.03;2.15;;;28.30;70.20;;;;;;5063683;28;20094;-50
2021/11/19 07:58:57;;;;;;;3.47;1.92;;;28.30;70.00;;;;;;5064046;28;20029;-48
2021/11/19 08:01:24;;;;;;;4.55;2.50;;;28.20;70.00;;;;;;5063683;28;20366;-49
2021/11/19 08:03:50;;;;;;;4.95;1.90;;;28.20;70.00;;;;;;5063930;28;20029;-47
2021/11/19 08:06:18;;;;;;;2.85;2.03;;;28.20;69.90;;;;;;5063633;28;20391;-50
2021/11/19 08:08:46;;;;;;;3.45;2.15;;;28.20;69.90;;;;;;5063798;28;20075;-48
2021/11/19 08:11:14;;;;;;;3.10;2.10;;;28.20;70.00;;;;;;5063676;28;20021;-52
2021/11/19 08:13:41;;;;;;;2.45;2.20;;;28.20;69.80;;;;;;5063608;28;20033;-53
2021/11/19 08:16:08;;;;;;;4.30;2.00;;;28.20;69.90;;;;;;5063477;28;20017;-47
2021/11/19 08:18:43;;;;;;;4.07;1.95;;;28.20;70.00;;;;;;5063788;28;20017;-53
2021/11/19 08:21:09;;;;;;;4.30;2.10;;;28.20;69.90;;;;;;5063619;28;20032;-52
2021/11/19 08:23:40;;;;;;;4.97;1.90;;;28.20;69.80;;;;;;5063601;28;20021;-51
2021/11/19 08:26:44;;;;;;;5.15;2.45;;;28.20;69.90;;;;;;5063505;28;20021;-51
2021/11/19 08:29:21;;;;;;;6.22;2.00;;;28.20;69.90;;;;;;5062617;28;20037;-43
2021/11/19 08:31:48;;;;;;;6.97;2.45;;;28.20;69.90;;;;;;5063393;28;20028;-45
2021/11/19 08:34:16;;;;;;;4.13;2.28;;;28.10;70.00;;;;;;5063705;28;20021;-50
2021/11/19 08:36:43;;;;;;;5.15;2.00;;;28.20;70.00;;;;;;5063732;28;20302;-50
2021/11/19 08:39:12;;;;;;;6.03;2.08;;;28.10;70.10;;;;;;5063581;28;20028;-48
2021/11/19 08:41:39;;;;;;;3.15;1.70;;;28.10;70.10;;;;;;5063411;28;20021;-50
2021/11/19 08:44:06;;;;;;;4.93;1.85;;;28.10;70.00;;;;;;5063647;28;20028;-49
2021/11/19 08:46:40;;;;;;;5.07;2.00;;;28.20;70.10;;;;;;5063223;28;20285;-50
2021/11/19 08:49:09;;;;;;;4.40;1.90;;;28.10;70.10;;;;;;5063615;28;20336;-49
2021/11/19 08:51:37;;;;;;;3.72;2.10;;;28.10;69.80;;;;;;5063325;28;20025;-49
2021/11/19 08:54:06;;;;;;;5.10;2.30;;;28.10;69.70;;;;;;5065153;28;20032;-47
2021/11/19 08:56:35;;;;;;;2.75;1.90;;;28.10;69.60;;;;;;5067130;28;20021;-49
2021/11/19 08:59:04;;;;;;;5.18;2.22;;;28.10;69.60;;;;;;5067278;28;20021;-43
2021/11/19 09:01:31;;;;;;;6.05;2.20;;;28.10;69.60;;;;;;5067191;28;20027;-44
2021/11/19 09:03:57;;;;;;;5.30;2.20;;;28.10;69.20;;;;;;5067034;28;20024;-51
2021/11/19 09:06:25;;;;;;;5.15;2.75;;;28.10;69.10;;;;;;5066920;28;20013;-52
2021/11/19 09:08:52;;;;;;;3.55;2.13;;;28.10;68.90;;;;;;5067118;28;20092;-49
2021/11/19 09:11:21;;;;;;;3.00;2.40;;;28.10;68.60;;;;;;5066797;28;20017;-51
2021/11/19 09:13:50;;;;;;;4.22;2.20;;;28.10;68.70;;;;;;5066985;28;20025;-53
2021/11/19 09:16:19;;;;;;;6.60;2.35;;;28.10;68.50;;;;;;5066724;28;20036;-54
2021/11/19 09:19:22;;;;;;;5.00;2.30;;;28.10;68.30;;;;;;5067053;28;20032;-48
2021/11/19 09:22:01;;;;;;;8.45;2.38;;;28.10;68.30;;;;;;5063075;28;20067;-42
2021/11/19 09:24:31;;;;;;;7.07;2.38;;;28.10;67.90;;;;;;5065397;28;20217;-43
2021/11/19 09:27:10;;;;;;;12.40;2.20;;;28.10;68.40;;;;;;5066606;28;20143;-42
2021/11/19 09:30:20;;;;;;;9.48;2.22;;;28.10;68.60;;;;;;5066856;28;20067;-46
2021/11/19 09:32:52;;;;;;;7.15;2.10;;;28.10;68.90;;;;;;5061734;28;20039;-45
2021/11/19 09:35:21;;;;;;;7.03;2.42;;;28.10;69.10;;;;;;5066356;28;20095;-46
2021/11/19 09:37:49;;;;;;;6.78;2.17;;;28.10;68.90;;;;;;5066352;28;20305;-47
2021/11/19 09:40:17;;;;;;;7.30;2.20;;;28.10;68.80;;;;;;5066387;28;20309;-43
2021/11/19 09:42:56;;;;;;;6.00;2.15;;;28.10;69.00;;;;;;5066300;28;20036;-50
2021/11/19 09:45:53;;;;;;;8.88;2.50;;;28.10;69.00;;;;;;5066245;28;20370;-46
2021/11/19 09:48:50;;;;;;;6.10;2.33;;;28.10;68.80;;;;;;5065116;28;20079;-47
2021/11/19 09:51:56;;;;;;;5.13;2.47;;;28.00;68.90;;;;;;5066098;28;20048;-49
2021/11/19 09:55:00;;;;;;;6.63;2.50;;;28.00;69.10;;;;;;5066189;28;20031;-46
2021/11/19 09:57:51;;;;;;;7.57;2.20;;;28.00;69.10;;;;;;5065940;28;20028;-47
2021/11/19 10:00:32;;;;;;;7.50;2.25;;;28.00;69.20;;;;;;5065764;28;20021;-44
2021/11/19 10:03:02;;;;;;;7.20;2.40;;;28.00;69.10;;;;;;5065930;28;20272;-47
2021/11/19 10:05:51;;;;;;;7.50;2.13;;;28.00;68.70;;;;;;5065135;28;20341;-48
2021/11/19 10:08:47;;;;;;;5.70;2.28;;;28.00;68.60;;;;;;5065778;28;20036;-46
2021/11/19 10:11:33;;;;;;;4.55;2.22;;;28.00;68.50;;;;;;5045915;28;20029;-51
2021/11/19 10:14:00;;;;;;;7.10;2.10;;;28.00;68.10;;;;;;5065426;28;20036;-47
2021/11/19 10:16:36;;;;;;;7.18;1.95;;;28.00;68.00;;;;;;5065714;28;20248;-53
2021/11/19 10:19:15;;;;;;;6.78;1.77;;;27.90;67.70;;;;;;5065868;28;20043;-50
2021/11/19 10:22:14;;;;;;;5.07;2.00;;;27.90;67.60;;;;;;5065419;28;20079;-50
2021/11/19 10:24:50;;;;;;;5.35;2.05;;;28.00;67.30;;;;;;5064170;28;20041;-48
2021/11/19 10:27:22;;;;;;;4.40;1.92;;;27.90;67.50;;;;;;5065354;28;20313;-50
2021/11/19 10:30:09;;;;;;;5.43;1.52;;;27.90;67.10;;;;;;5064227;28;20071;-49
2021/11/19 10:32:37;;;;;;;5.78;2.08;;;27.90;67.00;;;;;;5065356;28;20072;-53
2021/11/19 10:35:34;;;;;;;6.60;1.77;;;27.90;67.00;;;;;;5064057;28;20044;-48
2021/11/19 10:38:32;;;;;;;10.02;2.00;;;27.90;67.10;;;;;;5065099;28;20036;-47
2021/11/19 10:41:18;;;;;;;15.93;2.60;;;27.90;67.20;;;;;;5065205;28;20009;-46
2021/11/19 10:43:57;;;;;;;6.28;2.22;;;27.90;67.10;;;;;;5064941;28;20021;-49
2021/11/19 10:46:37;;;;;;;12.07;2.67;;;27.90;67.20;;;;;;5064813;28;20027;-43
2021/11/19 10:49:20;;;;;;;8.00;2.47;;;27.90;67.30;;;;;;5065156;28;20025;-47
2021/11/19 10:52:03;;;;;;;11.13;2.45;;;27.90;67.60;;;;;;5064674;28;20083;-43
2021/11/19 10:55:00;;;;;;;10.65;2.75;;;27.90;67.70;;;;;;5065193;28;20025;-48
2021/11/19 10:57:45;;;;;;;18.88;2.80;;;27.90;67.80;;;;;;5064775;28;20301;-45
2021/11/19 11:00:25;;;;;;;16.65;2.60;;;27.90;68.20;;;;;;5065053;28;20135;-52
2021/11/19 11:02:57;;;;;;;13.65;2.75;;;27.90;68.50;;;;;;5064600;28;20020;-50
2021/11/19 11:05:35;;;;;;;18.83;2.67;;;27.90;68.70;;;;;;5064511;28;20051;-51
2021/11/19 11:08:33;;;;;;;19.23;3.13;;;27.90;68.70;;;;;;5064588;28;20025;-48
2021/11/19 11:11:09;;;;;;;12.23;2.55;;;27.90;68.90;;;;;;5064530;28;20032;-44
2021/11/19 11:13:38;;;;;;;13.18;2.67;;;27.90;68.90;;;;;;5064676;28;20029;-44
2021/11/19 11:16:05;;;;;;;17.85;2.97;;;27.90;69.00;;;;;;5063492;28;20021;-47
2021/11/19 11:18:57;;;;;;;11.80;2.25;;;27.90;69.20;;;;;;5064646;28;20025;-48
2021/11/19 11:22:01;;;;;;;12.93;2.50;;;27.90;69.40;;;;;;5064046;28;20048;-47
2021/11/19 11:24:31;;;;;;;14.77;2.70;;;27.90;69.40;;;;;;5064385;28;20252;-45
2021/11/19 11:27:16;;;;;;;15.40;2.63;;;27.90;69.40;;;;;;5064260;28;20324;-50
2021/11/19 11:29:45;;;;;;;13.95;3.20;;;27.90;69.50;;;;;;5063931;28;20095;-46
2021/11/19 11:32:51;;;;;;;15.70;2.95;;;27.90;69.50;;;;;;5064094;28;20039;-46
2021/11/19 11:35:35;;;;;;;15.20;3.25;;;27.90;69.60;;;;;;5064058;28;20024;-49
2021/11/19 11:38:08;;;;;;;11.82;2.90;;;27.90;69.70;;;;;;5063888;28;20336;-47
2021/11/19 11:40:51;;;;;;;13.02;2.83;;;27.90;69.50;;;;;;5064058;28;20368;-54
2021/11/19 11:43:18;;;;;;;11.02;2.72;;;27.90;69.60;;;;;;5063874;28;20088;-44
2021/11/19 11:46:01;;;;;;;17.13;2.90;;;27.90;69.80;;;;;;5064013;28;20088;-48
2021/11/19 11:49:10;;;;;;;9.90;2.90;;;27.90;69.90;;;;;;5063958;28;20032;-52
2021/11/19 11:52:07;;;;;;;12.40;3.10;;;28.00;70.10;;;;;;5063723;28;20025;-48
2021/11/19 11:54:52;;;;;;;16.00;3.40;;;28.00;70.20;;;;;;5064074;28;20025;-48
2021/11/19 11:57:26;;;;;;;13.82;3.40;;;27.90;70.30;;;;;;5063714;28;20025;-46
2021/11/19 12:00:08;;;;;;;19.80;3.63;;;27.90;70.60;;;;;;5064228;28;20017;-52
2021/11/19 12:02:38;;;;;;;15.15;3.60;;;27.90;70.60;;;;;;5063829;28;20280;-45
2021/11/19 12:05:14;;;;;;;17.45;3.72;;;27.90;70.70;;;;;;5063782;28;20041;-54
2021/11/19 12:08:05;;;;;;;15.05;3.58;;;28.00;70.90;;;;;;5063548;28;20021;-45
2021/11/19 12:11:00;;;;;;;10.63;3.10;;;28.00;71.10;;;;;;5063589;28;20020;-51
2021/11/19 12:13:46;;;;;;;14.50;3.70;;;28.00;71.30;;;;;;5063683;28;20028;-50
2021/11/19 12:16:13;;;;;;;17.60;3.78;;;28.00;71.30;;;;;;5063505;28;20166;-54
2021/11/19 12:19:03;;;;;;;11.23;3.30;;;28.00;71.40;;;;;;5063706;28;20028;-56
2021/11/19 12:22:00;;;;;;;13.10;3.53;;;28.00;71.50;;;;;;5063488;28;20036;-53
2021/11/19 12:24:53;;;;;;;10.23;3.25;;;28.00;71.80;;;;;;5063746;28;20020;-53
2021/11/19 12:27:45;;;;;;;17.35;3.55;;;28.00;71.80;;;;;;5064353;28;20021;-53
2021/11/19 12:30:32;;;;;;;13.65;3.65;;;28.10;71.90;;;;;;5067981;28;20040;-56
2021/11/19 12:33:08;;;;;;;13.68;3.78;;;28.10;71.80;;;;;;5067372;28;20031;-58
2021/11/19 12:35:46;;;;;;;17.63;4.10;;;28.20;71.80;;;;;;5067521;28;20021;-57
2021/11/19 12:38:21;;;;;;;15.75;4.32;;;28.20;71.70;;;;;;5067302;28;20031;-55
2021/11/19 12:40:50;;;;;;;12.77;3.85;;;28.20;71.50;;;;;;5067399;28;20013;-53
2021/11/19 12:43:41;;;;;;;13.73;3.35;;;28.30;71.50;;;;;;5067254;28;20047;-57
2021/11/19 12:46:39;;;;;;;17.65;4.00;;;28.30;71.30;;;;;;5067309;28;20012;-53
2021/11/19 12:49:24;;;;;;;34.97;4.45;;;28.30;71.20;;;;;;5067467;28;20025;-55
2021/11/19 12:51:54;;;;;;;18.55;3.80;;;28.30;70.90;;;;;;5066982;28;20017;-57
2021/11/19 12:54:21;;;;;;;36.72;4.88;;;28.30;70.90;;;;;;5067129;28;20040;-57
2021/11/19 12:57:17;;;;;;;21.38;3.65;;;28.40;71.00;;;;;;5067051;28;20021;-53
2021/11/19 13:00:07;;;;;;;20.75;4.18;;;28.40;71.10;;;;;;5067371;28;20020;-52
2021/11/19 13:02:44;;;;;;;25.13;4.20;;;28.40;71.20;;;;;;5066939;28;20025;-56
2021/11/19 13:05:20;;;;;;;21.55;4.00;;;28.40;72.00;;;;;;5066952;28;20057;-56
2021/11/19 13:08:10;;;;;;;15.88;4.70;;;28.40;71.50;;;;;;5066811;28;20086;-59
2021/11/19 13:10:41;;;;;;;21.58;3.97;;;28.40;71.70;;;;;;5066830;28;20099;-57
2021/11/19 13:13:31;;;;;;;13.68;4.00;;;28.40;71.70;;;;;;5066655;28;20025;-57